createdAt,value
2019-03-18T00:00:33.146Z,20.05
2019-03-18T00:03:02.073Z,25.35
2019-03-18T00:05:30.762Z,26.48
2019-03-18T00:07:59.306Z,25.12
2019-03-18T00:10:27.911Z,29.10
2019-03-18T00:12:56.521Z,21.12
2019-03-18T00:15:25.136Z,21.48
2019-03-18T00:17:53.679Z,23.12
2019-03-18T00:20:22.209Z,25.68
2019-03-18T00:22:50.846Z,25.65
2019-03-18T00:25:19.450Z,26.80
2019-03-18T00:27:47.991Z,25.20
2019-03-18T00:30:18.745Z,22.35
2019-03-18T00:32:47.347Z,24.87
2019-03-18T00:35:15.988Z,23.62
2019-03-18T00:37:44.593Z,28.35
2019-03-18T00:40:14.903Z,21.82
2019-03-18T00:42:43.515Z,25.15
2019-03-18T00:45:15.150Z,19.70
2019-03-18T00:47:43.483Z,30.08
2019-03-18T00:50:16.799Z,23.85
2019-03-18T00:52:45.515Z,23.57
2019-03-18T00:55:14.116Z,23.73
2019-03-18T00:57:43.909Z,23.62
2019-03-18T01:00:16.423Z,26.70
2019-03-18T01:02:45.059Z,24.02
2019-03-18T01:05:14.290Z,21.05
2019-03-18T01:07:42.930Z,23.57
2019-03-18T01:10:13.712Z,27.95
2019-03-18T01:12:42.284Z,22.07
2019-03-18T01:15:11.801Z,21.10
2019-03-18T01:17:40.412Z,23.80
2019-03-18T01:20:10.815Z,24.07
2019-03-18T01:22:39.360Z,23.42
2019-03-18T01:25:09.712Z,22.93
2019-03-18T01:27:38.357Z,20.72
2019-03-18T01:30:12.213Z,20.77
2019-03-18T01:32:40.813Z,18.87
2019-03-18T01:35:10.527Z,20.85
2019-03-18T01:37:39.159Z,19.85
2019-03-18T01:40:12.186Z,18.95
2019-03-18T01:42:40.812Z,25.70
2019-03-18T01:45:11.465Z,21.27
2019-03-18T01:47:40.195Z,21.52
2019-03-18T01:50:13.590Z,24.18
2019-03-18T01:52:41.880Z,23.42
2019-03-18T01:55:10.480Z,17.95
2019-03-18T01:57:39.079Z,18.85
2019-03-18T02:00:13.023Z,20.65
2019-03-18T02:02:41.573Z,17.37
2019-03-18T02:05:10.979Z,16.57
2019-03-18T02:07:39.616Z,13.78
2019-03-18T02:10:13.325Z,20.15
2019-03-18T02:12:41.959Z,12.28
2019-03-18T02:15:12.904Z,12.50
2019-03-18T02:17:41.488Z,7.65
2019-03-18T02:20:14.204Z,15.53
2019-03-18T02:22:42.810Z,8.88
2019-03-18T02:25:11.579Z,8.10
2019-03-18T02:27:40.262Z,6.47
2019-03-18T02:30:13.791Z,8.13
2019-03-18T02:32:42.469Z,9.15
2019-03-18T02:35:11.069Z,6.28
2019-03-18T02:37:39.617Z,6.80
2019-03-18T02:40:09.821Z,6.58
2019-03-18T02:42:38.434Z,5.00
2019-03-18T02:45:09.640Z,4.95
2019-03-18T02:47:38.218Z,6.00
2019-03-18T02:50:08.231Z,4.90
2019-03-18T02:52:36.878Z,3.70
2019-03-18T02:55:08.521Z,4.65
2019-03-18T02:57:37.116Z,6.00
2019-03-18T03:00:11.315Z,4.87
2019-03-18T03:02:39.885Z,4.47
2019-03-18T03:05:10.896Z,7.90
2019-03-18T03:07:39.423Z,6.25
2019-03-18T03:10:11.451Z,8.03
2019-03-18T03:12:40.000Z,5.67
2019-03-18T03:15:13.554Z,5.85
2019-03-18T03:17:42.203Z,6.25
2019-03-18T03:20:12.673Z,5.97
2019-03-18T03:22:41.277Z,6.83
2019-03-18T03:25:11.004Z,7.90
2019-03-18T03:27:39.620Z,7.97
2019-03-18T03:30:17.539Z,5.85
2019-03-18T03:32:46.060Z,6.50
2019-03-18T03:35:14.797Z,7.83
2019-03-18T03:37:43.474Z,10.23
2019-03-18T03:40:12.860Z,8.48
2019-03-18T03:42:41.477Z,8.88
2019-03-18T03:45:12.450Z,6.22
2019-03-18T03:47:41.058Z,6.80
2019-03-18T03:50:12.309Z,7.87
2019-03-18T03:52:40.901Z,5.55
2019-03-18T03:55:11.099Z,6.33
2019-03-18T03:57:40.150Z,5.92
2019-03-18T04:00:13.125Z,5.05
2019-03-18T04:02:42.368Z,5.35
2019-03-18T04:05:11.273Z,3.77
2019-03-18T04:07:39.868Z,6.47
2019-03-18T04:10:15.532Z,5.08
2019-03-18T04:12:44.265Z,3.80
2019-03-18T04:15:14.191Z,4.12
2019-03-18T04:17:42.871Z,3.42
2019-03-18T04:20:16.452Z,3.45
2019-03-18T04:22:45.089Z,4.10
2019-03-18T04:25:13.634Z,3.30
2019-03-18T04:27:42.267Z,4.28
2019-03-18T04:30:13.749Z,3.85
2019-03-18T04:32:42.387Z,3.77
2019-03-18T04:35:11.100Z,3.35
2019-03-18T04:37:39.550Z,4.45
2019-03-18T04:40:10.231Z,4.92
2019-03-18T04:42:38.687Z,4.22
2019-03-18T04:45:08.987Z,2.98
2019-03-18T04:47:37.584Z,4.67
2019-03-18T04:50:10.864Z,3.85
2019-03-18T04:52:39.393Z,5.00
2019-03-18T04:55:08.699Z,3.77
2019-03-18T04:57:37.258Z,3.52
2019-03-18T05:00:11.668Z,3.55
2019-03-18T05:02:40.224Z,4.65
2019-03-18T05:05:10.688Z,5.03
2019-03-18T05:07:39.317Z,3.12
2019-03-18T05:10:09.766Z,3.33
2019-03-18T05:12:38.469Z,4.12
2019-03-18T05:15:11.418Z,3.87
2019-03-18T05:17:39.949Z,3.02
2019-03-18T05:20:12.305Z,2.20
2019-03-18T05:22:42.532Z,3.05
2019-03-18T05:25:11.523Z,6.53
2019-03-18T05:27:40.187Z,4.17
2019-03-18T05:30:13.629Z,3.27
2019-03-18T05:32:42.228Z,4.78
2019-03-18T05:35:10.925Z,4.55
2019-03-18T05:37:39.532Z,4.92
2019-03-18T05:40:09.369Z,5.05
2019-03-18T05:42:37.982Z,6.07
2019-03-18T05:45:09.464Z,6.97
2019-03-18T05:47:39.644Z,6.55
2019-03-18T05:50:10.233Z,4.90
2019-03-18T05:52:38.900Z,5.60
2019-03-18T05:55:09.013Z,4.83
2019-03-18T05:57:37.542Z,9.13
2019-03-18T06:00:09.252Z,5.58
2019-03-18T06:02:37.967Z,6.57
2019-03-18T06:05:07.360Z,5.37
2019-03-18T06:07:35.965Z,5.67
2019-03-18T06:10:07.434Z,4.80
2019-03-18T06:12:35.960Z,6.53
2019-03-18T06:15:06.926Z,6.53
2019-03-18T06:17:35.555Z,7.28
2019-03-18T06:20:06.354Z,8.78
2019-03-18T06:22:35.040Z,7.72
2019-03-18T06:25:04.376Z,6.33
2019-03-18T06:27:32.903Z,6.60
2019-03-18T06:30:01.486Z,5.70
2019-03-18T06:32:30.119Z,7.25
2019-03-18T06:34:58.644Z,7.20
2019-03-18T06:37:27.243Z,6.85
2019-03-18T06:39:55.800Z,6.33
2019-03-18T06:42:24.613Z,5.65
2019-03-18T06:44:53.143Z,7.35
2019-03-18T06:47:21.703Z,6.37
2019-03-18T06:49:50.223Z,6.17
2019-03-18T06:52:18.674Z,6.53
2019-03-18T06:54:47.150Z,6.37
2019-03-18T06:57:15.610Z,7.37
2019-03-18T06:59:45.070Z,7.00
2019-03-18T07:02:13.665Z,6.67
2019-03-18T07:04:42.282Z,7.50
2019-03-18T07:07:10.904Z,8.70
2019-03-18T07:09:39.452Z,6.73
2019-03-18T07:12:08.008Z,9.95
2019-03-18T07:14:36.547Z,9.43
2019-03-18T07:17:05.173Z,8.13
2019-03-18T07:19:33.645Z,8.78
2019-03-18T07:22:02.278Z,9.55
2019-03-18T07:24:30.936Z,7.87
2019-03-18T07:26:59.540Z,8.20
2019-03-18T07:29:28.077Z,11.55
2019-03-18T07:31:56.673Z,6.55
2019-03-18T07:34:25.273Z,7.78
2019-03-18T07:36:55.081Z,8.73
2019-03-18T07:39:27.174Z,7.15
2019-03-18T07:41:55.683Z,5.97
2019-03-18T07:44:24.304Z,6.57
2019-03-18T07:46:52.977Z,9.83
2019-03-18T07:49:21.565Z,7.90
2019-03-18T07:51:50.093Z,7.70
2019-03-18T07:54:18.691Z,8.18
2019-03-18T07:56:47.221Z,5.50
2019-03-18T07:59:15.828Z,6.25
2019-03-18T08:01:44.360Z,6.03
2019-03-18T08:04:12.888Z,6.78
2019-03-18T08:06:41.454Z,7.00
2019-03-18T08:09:10.050Z,5.47
2019-03-18T08:11:38.609Z,5.37
2019-03-18T08:14:07.333Z,5.08
2019-03-18T08:16:35.893Z,8.00
2019-03-18T08:19:04.439Z,6.35
2019-03-18T08:21:32.958Z,6.87
2019-03-18T08:24:01.506Z,4.45
2019-03-18T08:26:30.106Z,4.37
2019-03-18T08:29:00.807Z,14.45
2019-03-18T08:31:29.418Z,6.85
2019-03-18T08:33:58.074Z,26.27
2019-03-18T08:36:26.620Z,13.20
2019-03-18T08:38:55.153Z,8.83
2019-03-18T08:41:23.705Z,5.45
2019-03-18T08:43:52.281Z,6.05
2019-03-18T08:46:20.735Z,5.50
2019-03-18T08:48:55.775Z,5.53
2019-03-18T08:51:19.709Z,6.10
2019-03-18T08:53:48.391Z,15.18
2019-03-18T08:56:19.792Z,7.75
2019-03-18T08:58:48.424Z,8.00
2019-03-18T09:01:17.013Z,7.25
2019-03-18T09:03:45.501Z,7.83
2019-03-18T09:06:14.043Z,26.52
2019-03-18T09:08:42.532Z,8.70
2019-03-18T09:11:11.066Z,7.10
2019-03-18T09:13:39.541Z,8.35
2019-03-18T09:16:08.144Z,8.78
2019-03-18T09:18:37.080Z,9.20
2019-03-18T09:21:05.607Z,11.08
2019-03-18T09:23:34.245Z,11.90
2019-03-18T09:26:02.881Z,11.78
2019-03-18T09:28:31.410Z,9.40
2019-03-18T09:31:00.025Z,8.65
2019-03-18T09:33:28.592Z,11.45
2019-03-18T09:35:57.224Z,5.72
2019-03-18T09:38:27.907Z,10.48
2019-03-18T09:40:56.170Z,11.78
2019-03-18T09:43:24.804Z,7.45
2019-03-18T09:45:54.653Z,8.93
2019-03-18T09:48:23.352Z,6.37
2019-03-18T09:50:53.136Z,7.85
2019-03-18T09:53:21.707Z,9.68
2019-03-18T10:06:07.214Z,6.60
2019-03-18T10:08:35.748Z,5.47
2019-03-18T10:11:46.668Z,9.50
2019-03-18T10:14:15.307Z,8.60
2019-03-18T10:16:43.901Z,7.55
2019-03-18T10:19:12.370Z,7.50
2019-03-18T10:21:40.850Z,8.53
2019-03-18T10:24:09.397Z,10.85
2019-03-18T10:26:38.051Z,15.88
2019-03-18T10:29:06.619Z,9.05
2019-03-18T10:31:38.893Z,10.18
2019-03-18T10:34:07.548Z,8.58
2019-03-18T10:36:36.113Z,8.73
2019-03-18T10:39:07.010Z,8.68
2019-03-18T10:41:35.455Z,9.90
2019-03-18T10:44:04.106Z,15.58
2019-03-18T10:46:32.602Z,11.33
2019-03-18T10:49:01.212Z,8.68
2019-03-18T10:51:31.933Z,9.75
2019-03-18T10:54:01.373Z,7.70
2019-03-18T10:56:29.931Z,7.92
2019-03-18T10:59:00.591Z,7.12
2019-03-18T11:01:29.220Z,7.30
2019-03-18T11:03:57.855Z,7.90
2019-03-18T11:06:26.449Z,7.92
2019-03-18T11:08:55.065Z,11.18
2019-03-18T11:11:23.676Z,8.80
2019-03-18T11:13:52.275Z,10.00
2019-03-18T11:16:20.913Z,7.37
2019-03-18T11:18:49.431Z,7.35
2019-03-18T11:21:17.968Z,7.80
2019-03-18T11:23:48.589Z,7.40
2019-03-18T11:26:17.617Z,7.65
2019-03-18T11:28:46.149Z,7.22
2019-03-18T11:31:14.750Z,8.63
2019-03-18T11:33:43.282Z,8.23
2019-03-18T11:36:11.810Z,11.18
2019-03-18T11:38:43.271Z,14.80
2019-03-18T11:41:11.941Z,8.83
2019-03-18T11:43:40.485Z,8.55
2019-03-18T11:46:10.674Z,8.28
2019-03-18T11:48:39.275Z,8.73
2019-03-18T11:51:09.011Z,12.23
2019-03-18T11:53:37.624Z,11.22
2019-03-18T11:56:06.250Z,8.78
2019-03-18T11:58:34.842Z,12.37
2019-03-18T12:01:03.459Z,10.98
2019-03-18T12:03:32.064Z,10.68
2019-03-18T12:06:00.718Z,12.75
2019-03-18T12:08:31.544Z,12.28
2019-03-18T12:11:00.084Z,10.05
2019-03-18T12:13:28.713Z,13.58
2019-03-18T12:15:57.288Z,10.58
2019-03-18T12:18:25.887Z,10.08
2019-03-18T12:20:54.450Z,9.35
2019-03-18T12:23:23.048Z,9.80
2019-03-18T12:25:51.617Z,10.85
2019-03-18T12:28:20.239Z,8.28
2019-03-18T12:30:48.787Z,12.75
2019-03-18T12:33:17.320Z,9.73
2019-03-18T12:35:47.129Z,8.68
2019-03-18T12:38:15.660Z,8.63
2019-03-18T12:40:44.277Z,8.15
2019-03-18T12:43:12.878Z,8.60
2019-03-18T12:45:41.472Z,11.22
2019-03-18T12:48:10.076Z,10.08
2019-03-18T12:50:54.370Z,8.85
2019-03-18T12:53:09.147Z,19.52
2019-03-18T12:55:37.756Z,10.75
2019-03-18T12:58:06.518Z,8.10
2019-03-18T13:00:38.115Z,7.83
2019-03-18T13:03:06.727Z,9.08
2019-03-18T13:05:35.324Z,8.53
2019-03-18T13:08:03.985Z,7.80
2019-03-18T13:10:32.502Z,9.25
2019-03-18T13:13:01.114Z,7.03
2019-03-18T13:15:29.727Z,7.92
2019-03-18T13:17:58.406Z,6.20
2019-03-18T13:20:26.936Z,7.05
2019-03-18T13:22:55.393Z,7.15
2019-03-18T13:25:25.985Z,6.58
2019-03-18T13:27:57.278Z,9.63
2019-03-18T13:30:26.286Z,8.78
2019-03-18T13:32:54.918Z,7.75
2019-03-18T13:35:23.549Z,6.15
2019-03-18T13:37:52.103Z,6.03
2019-03-18T13:40:20.725Z,7.08
2019-03-18T13:42:49.370Z,6.90
2019-03-18T13:45:22.079Z,6.20
2019-03-18T13:47:50.701Z,6.95
2019-03-18T13:50:22.565Z,8.78
2019-03-18T13:52:51.124Z,11.43
2019-03-18T13:55:19.745Z,13.98
2019-03-18T13:57:48.318Z,20.80
2019-03-18T14:00:17.933Z,23.85
2019-03-18T14:02:46.565Z,27.40
2019-03-18T14:05:15.590Z,26.25
2019-03-18T14:07:44.316Z,16.70
2019-03-18T14:10:23.635Z,20.48
2019-03-18T14:12:53.606Z,9.15
2019-03-18T14:15:23.577Z,6.42
2019-03-18T14:17:52.169Z,8.00
2019-03-18T14:20:23.150Z,10.32
2019-03-18T14:22:51.747Z,7.17
2019-03-18T14:25:20.385Z,6.75
2019-03-18T14:27:48.912Z,7.30
2019-03-18T14:30:22.103Z,9.63
2019-03-18T14:32:50.730Z,6.40
2019-03-18T14:35:21.566Z,7.00
2019-03-18T14:37:49.740Z,7.65
2019-03-18T14:40:24.192Z,6.65
2019-03-18T14:42:52.782Z,7.92
2019-03-18T14:45:22.379Z,7.42
2019-03-18T14:47:51.007Z,5.85
2019-03-18T14:50:20.097Z,7.67
2019-03-18T14:52:49.282Z,6.55
2019-03-18T14:55:19.016Z,6.62
2019-03-18T14:57:48.944Z,7.25
2019-03-18T15:00:19.742Z,6.80
2019-03-18T15:02:48.347Z,7.37
2019-03-18T15:05:16.869Z,8.10
2019-03-18T15:07:45.810Z,7.58
2019-03-18T15:10:16.610Z,7.47
2019-03-18T15:12:45.177Z,7.33
2019-03-18T15:15:16.112Z,6.87
2019-03-18T15:17:44.714Z,10.53
2019-03-18T15:20:15.014Z,9.13
2019-03-18T15:22:43.982Z,10.40
2019-03-18T15:25:15.327Z,9.38
2019-03-18T15:27:43.934Z,8.18
2019-03-18T15:30:17.746Z,16.57
2019-03-18T15:32:46.354Z,22.48
2019-03-18T15:35:16.662Z,34.45
2019-03-18T15:37:45.199Z,38.98
2019-03-18T15:40:19.650Z,39.00
2019-03-18T15:42:48.318Z,38.98
2019-03-18T15:45:21.276Z,39.40
2019-03-18T15:47:49.890Z,39.27
2019-03-18T15:50:20.547Z,44.42
2019-03-18T15:52:51.270Z,51.18
2019-03-18T15:55:19.483Z,33.33
2019-03-18T15:57:48.090Z,16.52
2019-03-18T16:00:28.146Z,15.70
2019-03-18T16:02:56.709Z,10.38
2019-03-18T16:05:25.513Z,11.88
2019-03-18T16:07:54.129Z,23.87
2019-03-18T16:10:22.733Z,41.48
2019-03-18T16:12:51.344Z,37.93
2019-03-18T16:15:20.061Z,44.55
2019-03-18T16:17:48.670Z,47.70
2019-03-18T16:20:19.445Z,27.37
2019-03-18T16:22:47.949Z,19.42
2019-03-18T16:25:16.483Z,13.93
2019-03-18T16:27:45.058Z,18.02
2019-03-18T16:30:18.243Z,20.32
2019-03-18T16:32:46.855Z,30.82
2019-03-18T16:35:16.539Z,60.80
2019-03-18T16:37:45.475Z,49.80
2019-03-18T16:40:18.390Z,57.65
2019-03-18T16:42:46.996Z,48.48
2019-03-18T16:45:17.001Z,50.65
2019-03-18T16:47:45.974Z,43.05
2019-03-18T16:50:30.610Z,48.15
2019-03-18T16:52:59.250Z,35.05
2019-03-18T16:55:27.791Z,25.02
2019-03-18T16:57:56.444Z,22.13
2019-03-18T17:00:25.960Z,20.70
2019-03-18T17:02:54.648Z,18.98
2019-03-18T17:05:23.253Z,21.77
2019-03-18T17:07:54.194Z,17.62
2019-03-18T17:10:22.191Z,23.40
2019-03-18T17:12:50.657Z,19.17
2019-03-18T17:15:20.566Z,20.50
2019-03-18T17:17:49.170Z,21.82
2019-03-18T17:20:18.093Z,43.68
2019-03-18T17:22:53.302Z,33.85
2019-03-18T17:25:31.766Z,26.77
2019-03-18T17:28:00.378Z,24.43
2019-03-18T17:30:28.986Z,36.40
2019-03-18T17:32:57.510Z,35.92
2019-03-18T17:35:26.125Z,29.90
2019-03-18T17:37:54.663Z,30.43
2019-03-18T17:40:23.275Z,27.02
2019-03-18T17:42:51.918Z,28.20
2019-03-18T17:45:20.533Z,36.85
2019-03-18T17:47:49.066Z,36.65
2019-03-18T17:50:31.096Z,34.30
2019-03-18T17:53:03.477Z,43.45
2019-03-18T17:55:30.162Z,44.42
2019-03-18T17:57:58.641Z,50.48
2019-03-18T18:00:34.890Z,43.68
2019-03-18T18:03:03.580Z,43.55
2019-03-18T18:05:32.221Z,39.78
2019-03-18T18:08:00.758Z,28.87
2019-03-18T18:10:29.392Z,28.80
2019-03-18T18:12:57.969Z,28.57
2019-03-18T18:15:26.607Z,24.07
2019-03-18T18:17:55.146Z,35.17
2019-03-18T18:20:23.722Z,27.50
2019-03-18T18:22:52.399Z,27.73
2019-03-18T18:25:21.035Z,27.48
2019-03-18T18:27:49.502Z,26.75
2019-03-18T18:30:19.456Z,26.37
2019-03-18T18:32:48.060Z,28.32
2019-03-18T18:35:16.713Z,42.08
2019-03-18T18:37:45.272Z,34.98
2019-03-18T18:40:19.182Z,25.57
2019-03-18T18:42:47.728Z,28.10
2019-03-18T18:45:16.364Z,29.40
2019-03-18T18:47:46.505Z,25.40
2019-03-18T18:50:15.405Z,22.42
2019-03-18T18:52:44.016Z,21.85
2019-03-18T18:55:13.663Z,24.05
2019-03-18T18:57:42.253Z,23.80
2019-03-18T19:00:19.125Z,23.92
2019-03-18T19:02:47.746Z,23.05
2019-03-18T19:05:17.379Z,23.62
2019-03-18T19:07:46.025Z,23.27
2019-03-18T19:10:16.245Z,20.97
2019-03-18T19:12:44.788Z,19.35
2019-03-18T19:15:16.403Z,20.30
2019-03-18T19:17:45.031Z,25.75
2019-03-18T19:20:14.530Z,34.08
2019-03-18T19:22:44.505Z,23.75
2019-03-18T19:25:17.037Z,23.67
2019-03-18T19:27:45.647Z,26.60
2019-03-18T19:30:19.191Z,27.75
2019-03-18T19:32:47.832Z,30.27
2019-03-18T19:35:16.731Z,30.02
2019-03-18T19:37:45.344Z,38.10
2019-03-18T19:40:16.114Z,48.38
2019-03-18T19:42:44.723Z,54.23
2019-03-18T19:45:14.632Z,56.40
2019-03-18T19:47:43.549Z,50.83
2019-03-18T19:50:24.558Z,48.43
2019-03-18T19:52:53.164Z,42.23
2019-03-18T19:55:21.736Z,42.35
2019-03-18T19:57:50.436Z,40.70
2019-03-18T20:00:24.588Z,43.80
2019-03-18T20:02:53.126Z,36.65
2019-03-18T20:05:21.777Z,44.00
2019-03-18T20:07:50.512Z,41.80
2019-03-18T20:10:20.978Z,41.07
2019-03-18T20:12:49.895Z,34.60
2019-03-18T20:15:19.508Z,33.67
2019-03-18T20:17:48.185Z,32.00
2019-03-18T20:20:21.411Z,27.25
2019-03-18T20:22:50.083Z,25.63
2019-03-18T20:25:18.688Z,23.07
2019-03-18T20:27:47.325Z,28.95
2019-03-18T20:30:19.600Z,22.70
2019-03-18T20:32:48.228Z,23.90
2019-03-18T20:35:19.177Z,21.25
2019-03-18T20:37:51.667Z,19.57
2019-03-18T20:40:19.159Z,21.15
2019-03-18T20:42:47.790Z,17.50
2019-03-18T20:45:18.544Z,22.02
2019-03-18T20:47:47.149Z,19.48
2019-03-18T20:50:19.827Z,20.60
2019-03-18T20:52:50.074Z,14.75
2019-03-18T20:55:18.705Z,20.10
2019-03-18T20:57:47.342Z,21.23
2019-03-18T21:00:17.686Z,16.23
2019-03-18T21:02:46.292Z,16.40
2019-03-18T21:05:14.909Z,17.12
2019-03-18T21:07:43.447Z,16.13
2019-03-18T21:10:16.624Z,17.32
2019-03-18T21:12:45.251Z,22.07
2019-03-18T21:15:15.254Z,24.63
2019-03-18T21:17:43.971Z,26.10
2019-03-18T21:20:18.182Z,35.60
2019-03-18T21:22:46.812Z,55.70
2019-03-18T21:25:15.428Z,64.10
2019-03-18T21:27:44.060Z,58.23
2019-03-18T21:30:22.752Z,60.13
2019-03-18T21:32:51.692Z,50.30
2019-03-18T21:35:20.669Z,45.85
2019-03-18T21:37:49.191Z,51.23
2019-03-18T21:40:19.915Z,40.80
2019-03-18T21:42:48.552Z,45.63
2019-03-18T21:45:19.426Z,52.10
2019-03-18T21:47:48.338Z,50.85
2019-03-18T21:50:17.658Z,54.37
2019-03-18T21:52:46.571Z,55.40
2019-03-18T21:55:16.282Z,51.17
2019-03-18T21:57:44.920Z,60.20
2019-03-18T22:00:23.952Z,54.30
2019-03-18T22:02:52.565Z,47.05
2019-03-18T22:05:21.172Z,48.68
2019-03-18T22:07:49.829Z,43.90
2019-03-18T22:10:19.830Z,33.03
2019-03-18T22:12:48.534Z,46.73
2019-03-18T22:15:18.085Z,31.63
2019-03-18T22:17:46.690Z,35.93
2019-03-18T22:20:19.603Z,37.50
2019-03-18T22:22:48.205Z,33.43
2019-03-18T22:25:17.319Z,35.47
2019-03-18T22:27:45.939Z,36.83
2019-03-18T22:30:18.509Z,44.73
2019-03-18T22:32:47.394Z,40.63
2019-03-18T22:35:16.007Z,49.30
2019-03-18T22:37:44.615Z,66.13
2019-03-18T22:40:17.267Z,32.07
2019-03-18T22:42:45.928Z,52.57
2019-03-18T22:45:16.935Z,42.47
2019-03-18T22:47:45.851Z,33.10
2019-03-18T22:50:16.309Z,34.10
2019-03-18T22:52:45.026Z,28.43
2019-03-18T22:55:14.507Z,25.40
2019-03-18T22:57:43.109Z,41.90
2019-03-18T23:00:27.116Z,67.03
2019-03-18T23:02:55.719Z,78.60
2019-03-18T23:05:24.384Z,80.83
2019-03-18T23:07:52.956Z,76.90
2019-03-18T23:10:21.859Z,59.63
2019-03-18T23:12:50.574Z,53.77
2019-03-18T23:15:19.173Z,55.20
2019-03-18T23:17:47.864Z,47.57
2019-03-18T23:20:16.608Z,33.00
2019-03-18T23:22:45.228Z,23.50
2019-03-18T23:25:13.863Z,28.52
2019-03-18T23:27:42.575Z,19.80
2019-03-18T23:30:16.088Z,21.03
2019-03-18T23:32:44.705Z,22.00
2019-03-18T23:35:14.475Z,23.37
2019-03-18T23:37:43.063Z,24.13
2019-03-18T23:40:13.949Z,21.93
2019-03-18T23:42:42.650Z,22.00
2019-03-18T23:45:12.524Z,19.20
2019-03-18T23:47:41.152Z,18.47
2019-03-18T23:50:14.747Z,20.80
2019-03-18T23:52:43.470Z,25.63
2019-03-18T23:55:19.129Z,22.67
2019-03-18T23:57:43.004Z,16.00
